Time;durP1;ratioP1;P1;durP2;ratioP2;P2;SDS_P1;SDS_P2;PMS_P1;PMS_P2;Temp;Humidity;BMP_temperature;BMP_pressure;BME280_temperature;BME280_humidity;BME280_pressure;Samples;Min_cycle;Max_cycle;Signal;HPM_P1;HPM_P2
2023/02/02 00:00:11;;;;;;;;;;;;;;;;;;4900062;29;19916;-77
2023/02/02 00:02:36;;;;;;;;;;;;;;;;;;4900303;29;20391;-78
2023/02/02 00:05:01;;;;;;;;;;;;;;;;;;4898826;29;19955;-77
2023/02/02 00:07:27;;;;;;;;;;;;;;;;;;4900064;29;19915;-77
2023/02/02 00:09:52;;;;;;;;;;;;;;;;;;4898073;29;19975;-77
2023/02/02 00:12:17;;;;;;;;;;;;;;;;;;4883810;29;20435;-78
2023/02/02 00:14:43;;;;;;;;;;;;;;;;;;4864846;29;19916;-78
2023/02/02 00:17:08;;;;;;;;;;;;;;;;;;4881921;29;20002;-78
2023/02/02 00:19:34;;;;;;;;;;;;;;;;;;4880708;29;19963;-78
2023/02/02 00:21:59;;;;;;;;;;;;;;;;;;4881813;29;19916;-77
2023/02/02 00:24:24;;;;;;;;;;;;;;;;;;4881187;29;20402;-78
2023/02/02 00:26:50;;;;;;;;;;;;;;;;;;4893820;29;19912;-78
2023/02/02 00:29:15;;;;;;;;;;;;;;;;;;4880252;29;20419;-79
2023/02/02 00:31:40;;;;;;;;;;;;;;;;;;4881176;29;19916;-79
2023/02/02 00:34:06;;;;;;;;;;;;;;;;;;4879647;29;19980;-77
2023/02/02 00:36:31;;;;;;;;;;;;;;;;;;4894960;29;19915;-78
2023/02/02 00:38:56;;;;;;;;;;;;;;;;;;4879791;29;19951;-77
2023/02/02 00:41:22;;;;;;;;;;;;;;;;;;4894979;29;19920;-78
2023/02/02 00:45:14;;;;;;;;;;;;;;;;;;4884312;29;19916;-77
2023/02/02 00:46:32;;;;;;;;;;;;;;;;;;4895912;29;20007;-79
2023/02/02 00:48:58;;;;;;;;;;;;;;;;;;4881009;29;20006;-80
2023/02/02 00:51:24;;;;;;;;;;;;;;;;;;4897157;29;19916;-79
2023/02/02 00:53:49;;;;;;;;;;;;;;;;;;4882407;29;20291;-79
2023/02/02 00:56:14;;;;;;;;;;;;;;;;;;4897657;29;20044;-79
2023/02/02 00:58:40;;;;;;;;;;;;;;;;;;4897726;29;19915;-79
2023/02/02 01:01:05;;;;;;;;;;;;;;;;;;4899073;29;19919;-78
2023/02/02 01:03:30;;;;;;;;;;;;;;;;;;4897748;29;19973;-79
2023/02/02 01:05:56;;;;;;;;;;;;;;;;;;4899033;29;19916;-78
2023/02/02 01:08:21;;;;;;;;;;;;;;;;;;4882371;29;19920;-79
2023/02/02 01:10:47;;;;;;;;;;;;;;;;;;4897907;29;19915;-80
2023/02/02 01:13:13;;;;;;;;;;;;;;;;;;4899145;29;20014;-79
2023/02/02 01:15:38;;;;;;;;;;;;;;;;;;4882324;29;19979;-81
2023/02/02 01:18:04;;;;;;;;;;;;;;;;;;4899354;29;19915;-79
2023/02/02 01:20:30;;;;;;;;;;;;;;;;;;4899155;29;19916;-80
2023/02/02 01:22:56;;;;;;;;;;;;;;;;;;4899766;29;19919;-80
2023/02/02 01:25:21;;;;;;;;;;;;;;;;;;4868636;29;20032;-80
2023/02/02 01:27:46;;;;;;;;;;;;;;;;;;4899802;29;19915;-80
2023/02/02 01:30:12;;;;;;;;;;;;;;;;;;4901310;29;20384;-80
2023/02/02 01:32:37;;;;;;;;;;;;;;;;;;4907541;29;20006;-81
2023/02/02 01:35:02;;;;;;;;;;;;;;;;;;4905860;29;19989;-80
2023/02/02 01:37:29;;;;;;;;;;;;;;;;;;4878575;29;19916;-80
2023/02/02 01:39:54;;;;;;;;;;;;;;;;;;4908217;29;19921;-81
2023/02/02 01:42:19;;;;;;;;;;;;;;;;;;4907250;29;20315;-79
2023/02/02 01:44:45;;;;;;;;;;;;;;;;;;4904804;29;19944;-79
2023/02/02 01:47:10;;;;;;;;;;;;;;;;;;4905476;29;19916;-81
2023/02/02 01:49:37;;;;;;;;;;;;;;;;;;4889930;29;19934;-80
2023/02/02 01:52:02;;;;;;;;;;;;;;;;;;4905661;29;19916;-81
2023/02/02 01:54:28;;;;;;;;;;;;;;;;;;4904523;29;20387;-79
2023/02/02 01:56:53;;;;;;;;;;;;;;;;;;4903169;29;19916;-80
2023/02/02 01:59:18;;;;;;;;;;;;;;;;;;4902894;29;19935;-80
2023/02/02 02:01:44;;;;;;;;;;;;;;;;;;4896196;29;19923;-81
2023/02/02 02:04:10;;;;;;;;;;;;;;;;;;4890527;29;20389;-81
2023/02/02 02:06:35;;;;;;;;;;;;;;;;;;4906848;29;19916;-81
2023/02/02 02:09:02;;;;;;;;;;;;;;;;;;4907042;29;20296;-81
2023/02/02 02:11:27;;;;;;;;;;;;;;;;;;4907392;29;19915;-81
2023/02/02 02:16:37;;;;;;;;;;;;;;;;;;4904729;29;19915;-82
2023/02/02 02:19:02;;;;;;;;;;;;;;;;;;4914927;29;19915;-82
2023/02/02 02:26:56;;;;;;;;;;;;;;;;;;4908278;29;19979;-81
2023/02/02 02:29:22;;;;;;;;;;;;;;;;;;4910023;29;20002;-81
2023/02/02 02:31:47;;;;;;;;;;;;;;;;;;4912466;29;19940;-81
2023/02/02 02:34:13;;;;;;;;;;;;;;;;;;4913964;29;19915;-81
2023/02/02 02:36:38;;;;;;;;;;;;;;;;;;4912914;29;19916;-82
2023/02/02 02:39:04;;;;;;;;;;;;;;;;;;4886932;29;19916;-79
2023/02/02 02:41:29;;;;;;;;;;;;;;;;;;4887129;29;19919;-81
2023/02/02 02:43:55;;;;;;;;;;;;;;;;;;4904065;29;19923;-80
2023/02/02 02:46:20;;;;;;;;;;;;;;;;;;4904629;29;19937;-80
2023/02/02 02:48:46;;;;;;;;;;;;;;;;;;4892920;29;19920;-81
2023/02/02 02:51:12;;;;;;;;;;;;;;;;;;4893814;29;19955;-82
2023/02/02 02:53:37;;;;;;;;;;;;;;;;;;4905810;29;19923;-80
2023/02/02 02:56:02;;;;;;;;;;;;;;;;;;4907057;29;19916;-80
2023/02/02 02:58:28;;;;;;;;;;;;;;;;;;4889042;29;19919;-81
2023/02/02 03:00:53;;;;;;;;;;;;;;;;;;4906450;29;19923;-82
2023/02/02 03:03:19;;;;;;;;;;;;;;;;;;4907090;29;19920;-81
2023/02/02 03:05:44;;;;;;;;;;;;;;;;;;4893314;29;19915;-81
2023/02/02 03:08:09;;;;;;;;;;;;;;;;;;4892662;29;19915;-81
2023/02/02 03:10:35;;;;;;;;;;;;;;;;;;4908703;29;20007;-81
2023/02/02 03:13:00;;;;;;;;;;;;;;;;;;4912907;29;19918;-82
2023/02/02 03:15:26;;;;;;;;;;;;;;;;;;4896802;29;19915;-82
2023/02/02 03:17:51;;;;;;;;;;;;;;;;;;4910103;29;19923;-82
2023/02/02 03:20:17;;;;;;;;;;;;;;;;;;4908887;29;19923;-82
2023/02/02 03:22:42;;;;;;;;;;;;;;;;;;4909687;29;19915;-81
2023/02/02 03:25:10;;;;;;;;;;;;;;;;;;4910438;29;19955;-81
2023/02/02 03:27:35;;;;;;;;;;;;;;;;;;4911085;29;19923;-80
2023/02/02 03:30:00;;;;;;;;;;;;;;;;;;4909487;29;19920;-81
2023/02/02 03:32:26;;;;;;;;;;;;;;;;;;4894136;29;19915;-82
2023/02/02 03:34:51;;;;;;;;;;;;;;;;;;4881399;29;19916;-82
2023/02/02 03:37:17;;;;;;;;;;;;;;;;;;4918370;29;19922;-82
2023/02/02 03:39:42;;;;;;;;;;;;;;;;;;4917633;29;19916;-83
2023/02/02 03:42:08;;;;;;;;;;;;;;;;;;4917732;29;19920;-82
2023/02/02 03:44:33;;;;;;;;;;;;;;;;;;4916797;29;20010;-82
2023/02/02 03:46:58;;;;;;;;;;;;;;;;;;4899687;29;19999;-82
2023/02/02 03:49:24;;;;;;;;;;;;;;;;;;4916209;29;19966;-82
2023/02/02 03:51:49;;;;;;;;;;;;;;;;;;4916587;29;19916;-81
2023/02/02 03:54:15;;;;;;;;;;;;;;;;;;4918271;29;19942;-82
2023/02/02 03:56:40;;;;;;;;;;;;;;;;;;4916740;29;19922;-82
2023/02/02 03:59:05;;;;;;;;;;;;;;;;;;4901666;29;19919;-82
2023/02/02 04:01:31;;;;;;;;;;;;;;;;;;4888436;29;19915;-84
2023/02/02 04:03:56;;;;;;;;;;;;;;;;;;4920850;29;19916;-83
2023/02/02 04:06:22;;;;;;;;;;;;;;;;;;4921648;29;19998;-81
2023/02/02 04:08:47;;;;;;;;;;;;;;;;;;4884264;29;19936;-82
2023/02/02 04:11:13;;;;;;;;;;;;;;;;;;4883295;29;19932;-82
2023/02/02 04:13:39;;;;;;;;;;;;;;;;;;4895488;29;19926;-81
2023/02/02 04:16:05;;;;;;;;;;;;;;;;;;4896353;29;19946;-82
2023/02/02 04:18:30;;;;;;;;;;;;;;;;;;4896113;29;19916;-82
2023/02/02 04:20:56;;;;;;;;;;;;;;;;;;4864874;29;19920;-82
2023/02/02 04:23:21;;;;;;;;;;;;;;;;;;4865557;29;19931;-82
2023/02/02 04:25:46;;;;;;;;;;;;;;;;;;4896703;29;19974;-82
2023/02/02 04:28:12;;;;;;;;;;;;;;;;;;4894436;29;19988;-82
2023/02/02 04:30:37;;;;;;;;;;;;;;;;;;4876529;29;19922;-81
2023/02/02 04:33:03;;;;;;;;;;;;;;;;;;4894384;29;19916;-81
2023/02/02 04:35:28;;;;;;;;;;;;;;;;;;4899757;29;19900;-83
2023/02/02 04:37:54;;;;;;;;;;;;;;;;;;4905945;29;19915;-83
2023/02/02 04:40:19;;;;;;;;;;;;;;;;;;4908410;29;19918;-83
2023/02/02 04:42:45;;;;;;;;;;;;;;;;;;4924293;29;20005;-83
2023/02/02 04:45:13;;;;;;;;;;;;;;;;;;4922238;29;19979;-84
2023/02/02 04:47:41;;;;;;;;;;;;;;;;;;4922184;29;19900;-84
2023/02/02 04:50:11;;;;;;;;;;;;;;;;;;4923555;29;19927;-83
2023/02/02 04:52:41;;;;;;;;;;;;;;;;;;4920801;29;19921;-83
2023/02/02 04:55:07;;;;;;;;;;;;;;;;;;4905745;29;19969;-82
2023/02/02 04:57:33;;;;;;;;;;;;;;;;;;4921318;29;19970;-82
2023/02/02 04:59:58;;;;;;;;;;;;;;;;;;4921838;29;19923;-83
2023/02/02 05:02:24;;;;;;;;;;;;;;;;;;4916121;29;19916;-83
2023/02/02 05:04:50;;;;;;;;;;;;;;;;;;4918247;29;19915;-81
2023/02/02 05:07:16;;;;;;;;;;;;;;;;;;4889653;29;19971;-82
2023/02/02 05:09:44;;;;;;;;;;;;;;;;;;4905495;29;19974;-82
2023/02/02 05:12:09;;;;;;;;;;;;;;;;;;4921613;29;19995;-81
2023/02/02 05:14:38;;;;;;;;;;;;;;;;;;4903513;29;19916;-82
2023/02/02 05:17:03;;;;;;;;;;;;;;;;;;4903001;29;19916;-81
2023/02/02 05:19:29;;;;;;;;;;;;;;;;;;4920615;29;19922;-81
2023/02/02 05:21:54;;;;;;;;;;;;;;;;;;4918618;29;19921;-83
2023/02/02 05:24:23;;;;;;;;;;;;;;;;;;4920397;29;19927;-83
2023/02/02 05:26:52;;;;;;;;;;;;;;;;;;4920168;29;19947;-81
2023/02/02 05:29:17;;;;;;;;;;;;;;;;;;4919293;29;19998;-82
2023/02/02 05:31:43;;;;;;;;;;;;;;;;;;4919421;29;19916;-82
2023/02/02 05:34:10;;;;;;;;;;;;;;;;;;4919880;29;19916;-83
2023/02/02 05:36:35;;;;;;;;;;;;;;;;;;4919826;29;19926;-83
2023/02/02 05:39:01;;;;;;;;;;;;;;;;;;4921414;29;19915;-83
2023/02/02 05:41:27;;;;;;;;;;;;;;;;;;4922349;29;19943;-83
2023/02/02 05:43:53;;;;;;;;;;;;;;;;;;4921306;29;19931;-81
2023/02/02 05:46:18;;;;;;;;;;;;;;;;;;4914087;29;20407;-81
2023/02/02 05:48:44;;;;;;;;;;;;;;;;;;4909315;29;20354;-81
2023/02/02 05:51:09;;;;;;;;;;;;;;;;;;4916465;29;20359;-82
2023/02/02 05:53:35;;;;;;;;;;;;;;;;;;4919891;29;19926;-81
2023/02/02 05:56:01;;;;;;;;;;;;;;;;;;4933080;29;19982;-82
2023/02/02 05:58:27;;;;;;;;;;;;;;;;;;4940695;28;19923;-81
2023/02/02 06:00:52;;;;;;;;;;;;;;;;;;4938607;28;19938;-83
2023/02/02 06:03:18;;;;;;;;;;;;;;;;;;4921081;29;20003;-81
2023/02/02 06:05:46;;;;;;;;;;;;;;;;;;4935888;29;20006;-83
2023/02/02 06:08:12;;;;;;;;;;;;;;;;;;4935306;29;19915;-82
2023/02/02 06:10:37;;;;;;;;;;;;;;;;;;4904516;29;19940;-84
2023/02/02 06:13:03;;;;;;;;;;;;;;;;;;4938973;29;19915;-83
2023/02/02 06:15:32;;;;;;;;;;;;;;;;;;4939363;29;19929;-83
2023/02/02 06:17:57;;;;;;;;;;;;;;;;;;4923490;29;19924;-84
2023/02/02 06:20:23;;;;;;;;;;;;;;;;;;4938723;29;19915;-82
2023/02/02 06:22:56;;;;;;;;;;;;;;;;;;4924530;29;19919;-83
2023/02/02 06:25:22;;;;;;;;;;;;;;;;;;4939161;29;19970;-83
2023/02/02 06:27:48;;;;;;;;;;;;;;;;;;4923803;29;19895;-83
2023/02/02 06:30:14;;;;;;;;;;;;;;;;;;4939964;29;19918;-83
2023/02/02 06:32:40;;;;;;;;;;;;;;;;;;4922473;29;19899;-83
2023/02/02 06:35:05;;;;;;;;;;;;;;;;;;4923427;29;19907;-83
2023/02/02 06:37:32;;;;;;;;;;;;;;;;;;4921676;29;19919;-83
2023/02/02 06:39:58;;;;;;;;;;;;;;;;;;4920703;29;19915;-83
2023/02/02 06:42:24;;;;;;;;;;;;;;;;;;4904214;29;19919;-82
2023/02/02 06:44:50;;;;;;;;;;;;;;;;;;4919489;29;19915;-84
2023/02/02 06:47:15;;;;;;;;;;;;;;;;;;4919646;29;19919;-84
2023/02/02 06:49:41;;;;;;;;;;;;;;;;;;4917185;29;19926;-83
2023/02/02 06:52:07;;;;;;;;;;;;;;;;;;4929953;29;19946;-82
2023/02/02 06:54:32;;;;;;;;;;;;;;;;;;4927480;29;19915;-82
2023/02/02 07:37:36;;;;;;;;;;;;;;;;;;4930585;29;20011;-79
2023/02/02 07:40:02;;;;;;;;;;;;;;;;;;4919390;29;20021;-78
2023/02/02 07:42:27;;;;;;;;;;;;;;;;;;4918856;29;19923;-77
2023/02/02 07:44:58;;;;;;;;;;;;;;;;;;4904049;29;19915;-84
2023/02/02 08:30:16;;;;;;;;;;;;;;;;;;;;;
2023/02/02 11:41:42;;;;;;;;;;;;;;;;;;5615944;23;19926;-84
2023/02/02 11:44:15;;;;;;;;;;;;;;;;;;4927017;29;19904;-85
2023/02/02 11:46:47;;;;;;;;;;;;;;;;;;4928683;28;19904;-85
2023/02/02 11:51:54;;;;;;;;;;;;;;;;;;4928048;29;19911;-86
2023/02/02 11:54:19;;;;;;;;;;;;;;;;;;4924653;29;19907;-85
2023/02/02 11:59:29;;;;;;;;;;;;;;;;;;5866404;23;19928;-83
2023/02/02 12:01:56;;;;;;;;;;;;;;;;;;4906583;29;19931;-86
2023/02/02 12:04:25;;;;;;;;;;;;;;;;;;4947323;23;19914;-86
2023/02/02 12:09:22;;;;;;;;;;;;;;;;;;4961005;28;19927;-86
2023/02/02 12:11:51;;;;;;;;;;;;;;;;;;5008399;23;19938;-85
2023/02/02 12:14:17;;;;;;;;;;;;;;;;;;5026785;23;19975;-85
2023/02/02 12:19:16;;;;;;;;;;;;;;;;;;4989891;23;19998;-86
2023/02/02 12:21:44;;;;;;;;;;;;;;;;;;4951963;23;19951;-85
2023/02/02 12:24:12;;;;;;;;;;;;;;;;;;4942864;28;19927;-85
2023/02/02 12:26:42;;;;;;;;;;;;;;;;;;4955267;23;19907;-81
2023/02/02 12:29:10;;;;;;;;;;;;;;;;;;4941502;28;19928;-85
2023/02/02 12:31:51;;;;;;;;;;;;;;;;;;5506401;23;19926;-84
2023/02/02 12:39:50;;;;;;;;;;;;;;;;;;5077280;23;19911;-86
2023/02/02 12:42:24;;;;;;;;;;;;;;;;;;4942829;28;19910;-84
2023/02/02 12:44:57;;;;;;;;;;;;;;;;;;4927576;29;19909;-86
2023/02/02 12:47:36;;;;;;;;;;;;;;;;;;4928136;29;19903;-85
2023/02/02 12:50:10;;;;;;;;;;;;;;;;;;4928011;29;19911;-85
2023/02/02 12:52:41;;;;;;;;;;;;;;;;;;4911838;29;19919;-83
2023/02/02 12:55:13;;;;;;;;;;;;;;;;;;4942962;28;19944;-85
2023/02/02 12:57:42;;;;;;;;;;;;;;;;;;4942578;28;19919;-84
2023/02/02 13:00:12;;;;;;;;;;;;;;;;;;4926801;29;19919;-85
2023/02/02 13:02:38;;;;;;;;;;;;;;;;;;4923743;29;19923;-84
2023/02/02 13:05:08;;;;;;;;;;;;;;;;;;4906629;29;20410;-83
2023/02/02 13:07:34;;;;;;;;;;;;;;;;;;4904933;29;19922;-84
2023/02/02 13:10:06;;;;;;;;;;;;;;;;;;4918409;29;19923;-85
2023/02/02 13:12:33;;;;;;;;;;;;;;;;;;4908874;29;20414;-85
2023/02/02 13:15:06;;;;;;;;;;;;;;;;;;4923689;29;19911;-85
2023/02/02 13:17:45;;;;;;;;;;;;;;;;;;4924462;29;19926;-86
2023/02/02 13:20:14;;;;;;;;;;;;;;;;;;4909209;29;19920;-85
2023/02/02 13:22:44;;;;;;;;;;;;;;;;;;4940899;28;19919;-83
2023/02/02 13:25:18;;;;;;;;;;;;;;;;;;4941859;28;19923;-84
2023/02/02 13:27:45;;;;;;;;;;;;;;;;;;4910999;28;19923;-84
2023/02/02 13:33:08;;;;;;;;;;;;;;;;;;4937901;29;19963;-85
2023/02/02 13:35:36;;;;;;;;;;;;;;;;;;4923296;29;19908;-84
2023/02/02 13:38:13;;;;;;;;;;;;;;;;;;5377741;23;19999;-84
2023/02/02 13:40:42;;;;;;;;;;;;;;;;;;4922666;29;19904;-84
2023/02/02 13:43:11;;;;;;;;;;;;;;;;;;4907252;29;19910;-83
2023/02/02 13:45:43;;;;;;;;;;;;;;;;;;4907211;29;19903;-83
2023/02/02 13:48:12;;;;;;;;;;;;;;;;;;4922362;29;19919;-83
2023/02/02 13:50:43;;;;;;;;;;;;;;;;;;4907234;29;19912;-84
2023/02/02 13:53:09;;;;;;;;;;;;;;;;;;4923322;29;19904;-83
2023/02/02 13:55:39;;;;;;;;;;;;;;;;;;5216486;23;20185;-85
2023/02/02 13:58:13;;;;;;;;;;;;;;;;;;4922797;29;19903;-84
2023/02/02 14:00:46;;;;;;;;;;;;;;;;;;4903632;29;19903;-86
2023/02/02 14:03:16;;;;;;;;;;;;;;;;;;4903818;29;19907;-85
2023/02/02 14:05:51;;;;;;;;;;;;;;;;;;5386887;23;19915;-85
2023/02/02 14:08:17;;;;;;;;;;;;;;;;;;4925935;29;19923;-85
2023/02/02 14:10:54;;;;;;;;;;;;;;;;;;4919754;29;19919;-86
2023/02/02 14:16:13;;;;;;;;;;;;;;;;;;4922506;29;19928;-86
2023/02/02 14:18:44;;;;;;;;;;;;;;;;;;4907720;29;19928;-85
2023/02/02 14:21:10;;;;;;;;;;;;;;;;;;5036392;23;19927;-86
2023/02/02 14:26:12;;;;;;;;;;;;;;;;;;4940019;28;19912;-85
2023/02/02 14:28:40;;;;;;;;;;;;;;;;;;4941287;28;19928;-85
2023/02/02 14:31:05;;;;;;;;;;;;;;;;;;4940762;28;19903;-85
2023/02/02 14:33:31;;;;;;;;;;;;;;;;;;4924807;29;19944;-85
2023/02/02 14:35:57;;;;;;;;;;;;;;;;;;4939041;29;19919;-85
2023/02/02 14:38:23;;;;;;;;;;;;;;;;;;4939166;29;19964;-84
2023/02/02 14:40:51;;;;;;;;;;;;;;;;;;5415405;23;19918;-84
2023/02/02 14:46:04;;;;;;;;;;;;;;;;;;4922751;29;19919;-85
2023/02/02 14:48:30;;;;;;;;;;;;;;;;;;4923253;29;19910;-86
2023/02/02 14:50:55;;;;;;;;;;;;;;;;;;4922139;29;19903;-84
2023/02/02 14:53:21;;;;;;;;;;;;;;;;;;5225046;23;19927;-85
2023/02/02 14:58:37;;;;;;;;;;;;;;;;;;5077871;23;19923;-87
2023/02/02 15:01:08;;;;;;;;;;;;;;;;;;4940720;29;20004;-85
2023/02/02 15:03:34;;;;;;;;;;;;;;;;;;4939437;28;20018;-85
2023/02/02 15:08:34;;;;;;;;;;;;;;;;;;4991078;23;19927;-85
2023/02/02 15:11:00;;;;;;;;;;;;;;;;;;4905733;29;19943;-86
2023/02/02 15:13:26;;;;;;;;;;;;;;;;;;4921303;29;19943;-85
2023/02/02 15:15:58;;;;;;;;;;;;;;;;;;4892685;29;19940;-86
2023/02/02 15:18:25;;;;;;;;;;;;;;;;;;4975510;23;19933;-87
2023/02/02 15:21:00;;;;;;;;;;;;;;;;;;4922965;29;19905;-87
2023/02/02 15:23:33;;;;;;;;;;;;;;;;;;5776248;23;20201;-83
2023/02/02 15:25:59;;;;;;;;;;;;;;;;;;5367176;23;19911;-85
2023/02/02 15:28:43;;;;;;;;;;;;;;;;;;5781555;23;19931;-84
2023/02/02 15:33:54;;;;;;;;;;;;;;;;;;4960407;23;19924;-86
2023/02/02 15:38:59;;;;;;;;;;;;;;;;;;5316584;23;19925;-84
2023/02/02 15:41:24;;;;;;;;;;;;;;;;;;5655074;23;19929;-83
2023/02/02 15:43:52;;;;;;;;;;;;;;;;;;4956754;23;20161;-83
2023/02/02 15:46:27;;;;;;;;;;;;;;;;;;4975446;23;19990;-86
2023/02/02 15:49:05;;;;;;;;;;;;;;;;;;5492941;23;19983;-84
2023/02/02 15:54:05;;;;;;;;;;;;;;;;;;5737165;23;19935;-83
2023/02/02 15:59:13;;;;;;;;;;;;;;;;;;5450692;23;20265;-85
2023/02/02 16:01:49;;;;;;;;;;;;;;;;;;5363309;23;19911;-85
2023/02/02 16:23:03;;;;;;;;;;;;;;;;;;6253720;22;2083086;-85
2023/02/02 16:33:50;;;;;;;;;;;;;;;;;;6283026;22;19957;-86
2023/02/02 16:39:15;;;;;;;;;;;;;;;;;;6291559;22;19903;-84
2023/02/02 16:41:46;;;;;;;;;;;;;;;;;;6263090;22;19895;-86
2023/02/02 16:44:26;;;;;;;;;;;;;;;;;;6239309;22;19907;-86
2023/02/02 16:46:53;;;;;;;;;;;;;;;;;;6232710;22;19902;-85
2023/02/02 16:49:26;;;;;;;;;;;;;;;;;;6258408;22;20251;-85
2023/02/02 16:51:57;;;;;;;;;;;;;;;;;;6232382;22;19899;-84
2023/02/02 17:08:09;;;;;;;;;;;;;;;;;;6311141;22;19919;-85
2023/02/02 17:15:58;;;;;;;;;;;;;;;;;;6328100;22;19907;-85
2023/02/02 17:55:46;;;;;;;;;;;;;;;;;;;;;
2023/02/02 18:01:19;;;;;;;;;;;;;;;;;;6314552;22;19903;-83
2023/02/02 18:06:39;;;;;;;;;;;;;;;;;;6306803;22;20005;-85
2023/02/02 18:17:29;;;;;;;;;;;;;;;;;;6319601;22;19918;-84
2023/02/02 18:22:37;;;;;;;;;;;;;;;;;;6313202;22;19903;-80
2023/02/02 18:31:18;;;;;;;;;;;;;;;;;;6278874;22;20533;-84
2023/02/02 18:34:02;;;;;;;;;;;;;;;;;;6309927;22;19934;-85
2023/02/02 18:36:32;;;;;;;;;;;;;;;;;;6256834;22;19911;-85
2023/02/02 18:39:05;;;;;;;;;;;;;;;;;;6286616;22;19898;-86
2023/02/02 18:41:36;;;;;;;;;;;;;;;;;;6264466;22;19903;-84
2023/02/02 18:49:18;;;;;;;;;;;;;;;;;;6304778;22;19903;-87
2023/02/02 18:51:47;;;;;;;;;;;;;;;;;;6279801;22;19922;-85
2023/02/02 18:54:15;;;;;;;;;;;;;;;;;;6279430;22;19927;-86
2023/02/02 18:56:42;;;;;;;;;;;;;;;;;;6279797;22;19955;-86
2023/02/02 18:59:22;;;;;;;;;;;;;;;;;;6256754;22;19938;-86
2023/02/02 19:01:52;;;;;;;;;;;;;;;;;;6255727;22;19911;-86
2023/02/02 19:10:07;;;;;;;;;;;;;;;;;;6279261;22;19977;-84
2023/02/02 19:12:43;;;;;;;;;;;;;;;;;;6305332;22;19892;-85
2023/02/02 19:15:08;;;;;;;;;;;;;;;;;;6279806;22;19895;-84
2023/02/02 19:17:34;;;;;;;;;;;;;;;;;;6273321;22;19977;-81
2023/02/02 19:20:00;;;;;;;;;;;;;;;;;;6288967;22;19912;-81
2023/02/02 19:22:29;;;;;;;;;;;;;;;;;;6289415;22;20324;-81
2023/02/02 19:24:55;;;;;;;;;;;;;;;;;;6287216;22;19918;-81
2023/02/02 19:27:20;;;;;;;;;;;;;;;;;;6286255;22;19907;-81
2023/02/02 19:29:46;;;;;;;;;;;;;;;;;;6289290;22;19922;-81
2023/02/02 19:32:13;;;;;;;;;;;;;;;;;;6286352;22;19951;-81
2023/02/02 19:34:38;;;;;;;;;;;;;;;;;;6288789;22;19907;-82
2023/02/02 19:37:03;;;;;;;;;;;;;;;;;;6287708;22;19936;-82
2023/02/02 19:39:32;;;;;;;;;;;;;;;;;;6261972;22;19907;-81
2023/02/02 19:41:57;;;;;;;;;;;;;;;;;;6286772;22;19951;-81
2023/02/02 19:44:23;;;;;;;;;;;;;;;;;;6291544;22;19911;-82
2023/02/02 19:46:48;;;;;;;;;;;;;;;;;;6292136;22;19915;-82
2023/02/02 19:49:14;;;;;;;;;;;;;;;;;;6289642;22;20323;-81
2023/02/02 19:51:40;;;;;;;;;;;;;;;;;;6290024;22;19914;-81
2023/02/02 19:54:06;;;;;;;;;;;;;;;;;;6293060;22;19946;-82
2023/02/02 19:56:33;;;;;;;;;;;;;;;;;;6290661;22;20268;-81
2023/02/02 19:58:59;;;;;;;;;;;;;;;;;;6290513;22;20276;-81
2023/02/02 20:01:24;;;;;;;;;;;;;;;;;;6290091;22;19904;-81
2023/02/02 20:03:51;;;;;;;;;;;;;;;;;;6289191;22;19961;-82
2023/02/02 20:06:16;;;;;;;;;;;;;;;;;;6291418;22;19911;-82
2023/02/02 20:08:42;;;;;;;;;;;;;;;;;;6265877;22;19918;-82
2023/02/02 20:11:07;;;;;;;;;;;;;;;;;;6264307;22;19907;-82
2023/02/02 20:13:33;;;;;;;;;;;;;;;;;;6265020;22;19911;-81
2023/02/02 20:15:59;;;;;;;;;;;;;;;;;;6293192;22;19907;-81
2023/02/02 20:18:24;;;;;;;;;;;;;;;;;;6288123;22;19926;-81
2023/02/02 20:20:50;;;;;;;;;;;;;;;;;;6289978;22;19914;-82
2023/02/02 20:23:15;;;;;;;;;;;;;;;;;;6286565;22;19907;-81
2023/02/02 20:25:43;;;;;;;;;;;;;;;;;;6293148;22;19892;-84
2023/02/02 20:28:10;;;;;;;;;;;;;;;;;;6277364;22;19996;-78
2023/02/02 20:30:36;;;;;;;;;;;;;;;;;;6277338;22;19914;-77
2023/02/02 20:33:03;;;;;;;;;;;;;;;;;;6251158;22;20336;-78
2023/02/02 20:35:29;;;;;;;;;;;;;;;;;;6281726;22;19907;-78
2023/02/02 20:37:54;;;;;;;;;;;;;;;;;;6281928;22;19914;-78
2023/02/02 20:40:20;;;;;;;;;;;;;;;;;;6280173;22;19903;-77
2023/02/02 20:50:39;;;;;;;;;;;;;;;;;;6333031;22;19919;-85
2023/02/02 20:53:14;;;;;;;;;;;;;;;;;;6281581;22;19907;-85
2023/02/02 20:55:43;;;;;;;;;;;;;;;;;;6308015;22;19895;-86
2023/02/02 20:58:12;;;;;;;;;;;;;;;;;;6260525;22;19891;-85
2023/02/02 21:00:43;;;;;;;;;;;;;;;;;;6288235;22;19921;-85
2023/02/02 21:11:19;;;;;;;;;;;;;;;;;;6331479;22;19914;-85
2023/02/02 21:13:45;;;;;;;;;;;;;;;;;;6311835;22;19895;-86
2023/02/02 21:16:13;;;;;;;;;;;;;;;;;;6232719;22;19909;-87
2023/02/02 21:18:50;;;;;;;;;;;;;;;;;;;;;
2023/02/02 21:29:31;;;;;;;;;;;;;;;;;;6285215;22;20026;-84
2023/02/02 21:32:02;;;;;;;;;;;;;;;;;;6324290;22;19906;-83
2023/02/02 21:34:28;;;;;;;;;;;;;;;;;;6321816;22;20221;-83
2023/02/02 21:36:56;;;;;;;;;;;;;;;;;;6320625;22;20243;-83
2023/02/02 21:39:21;;;;;;;;;;;;;;;;;;6319151;22;19914;-83
2023/02/02 21:41:47;;;;;;;;;;;;;;;;;;6319476;22;19931;-82
2023/02/02 21:44:12;;;;;;;;;;;;;;;;;;6325138;22;19907;-82
2023/02/02 21:46:38;;;;;;;;;;;;;;;;;;6325759;22;19907;-81
2023/02/02 21:49:03;;;;;;;;;;;;;;;;;;6327257;22;19918;-81
2023/02/02 21:51:29;;;;;;;;;;;;;;;;;;6325227;22;19914;-81
2023/02/02 21:53:54;;;;;;;;;;;;;;;;;;6326018;22;19903;-81
2023/02/02 21:56:20;;;;;;;;;;;;;;;;;;6326256;22;19907;-81
2023/02/02 21:58:46;;;;;;;;;;;;;;;;;;6322371;22;20371;-82
2023/02/02 22:01:11;;;;;;;;;;;;;;;;;;6294040;22;20279;-82
2023/02/02 22:03:37;;;;;;;;;;;;;;;;;;6317366;22;19958;-82
2023/02/02 22:06:02;;;;;;;;;;;;;;;;;;6288674;22;20252;-82
2023/02/02 22:08:28;;;;;;;;;;;;;;;;;;6315186;22;19914;-82
2023/02/02 22:10:53;;;;;;;;;;;;;;;;;;6315316;22;19907;-83
2023/02/02 22:13:19;;;;;;;;;;;;;;;;;;6295015;22;19902;-82
2023/02/02 22:15:46;;;;;;;;;;;;;;;;;;6323831;22;19999;-82
2023/02/02 22:18:11;;;;;;;;;;;;;;;;;;6321433;22;19913;-82
2023/02/02 22:20:37;;;;;;;;;;;;;;;;;;6317738;22;20267;-81
2023/02/02 22:23:03;;;;;;;;;;;;;;;;;;6317765;22;19906;-82
2023/02/02 22:25:28;;;;;;;;;;;;;;;;;;6313987;22;19907;-82
2023/02/02 22:27:54;;;;;;;;;;;;;;;;;;6315249;22;19907;-82
2023/02/02 22:30:19;;;;;;;;;;;;;;;;;;6314648;22;20376;-82
2023/02/02 22:32:45;;;;;;;;;;;;;;;;;;6312127;22;19907;-82
2023/02/02 22:35:10;;;;;;;;;;;;;;;;;;6315691;22;19907;-82
2023/02/02 22:37:36;;;;;;;;;;;;;;;;;;6311512;22;19907;-81
2023/02/02 22:40:01;;;;;;;;;;;;;;;;;;6314916;22;20287;-81
2023/02/02 22:42:27;;;;;;;;;;;;;;;;;;6291456;22;19920;-82
2023/02/02 22:44:52;;;;;;;;;;;;;;;;;;6319311;22;19906;-82
2023/02/02 22:47:18;;;;;;;;;;;;;;;;;;6320581;22;19907;-82
2023/02/02 22:49:43;;;;;;;;;;;;;;;;;;6320383;22;20308;-82
2023/02/02 22:52:08;;;;;;;;;;;;;;;;;;6293769;22;19907;-81
2023/02/02 22:54:38;;;;;;;;;;;;;;;;;;6329086;22;19955;-84
2023/02/02 22:57:27;;;;;;;;;;;;;;;;;;;;;
2023/02/02 23:00:13;;;;;;;;;;;;;;;;;;6307134;22;20259;-80
2023/02/02 23:02:52;;;;;;;;;;;;;;;;;;6305088;22;19891;-84
2023/02/02 23:05:35;;;;;;;;;;;;;;;;;;6320780;22;19903;-83
2023/02/02 23:08:00;;;;;;;;;;;;;;;;;;6333440;22;19938;-83
2023/02/02 23:10:34;;;;;;;;;;;;;;;;;;6333197;22;19907;-83
2023/02/02 23:13:00;;;;;;;;;;;;;;;;;;6304217;22;19907;-83
2023/02/02 23:15:25;;;;;;;;;;;;;;;;;;6329517;22;19925;-83
2023/02/02 23:17:57;;;;;;;;;;;;;;;;;;6335050;22;19930;-84
2023/02/02 23:20:23;;;;;;;;;;;;;;;;;;6333838;22;19932;-83
2023/02/02 23:22:48;;;;;;;;;;;;;;;;;;6332236;22;19930;-83
2023/02/02 23:25:14;;;;;;;;;;;;;;;;;;6327507;22;19895;-83
2023/02/02 23:27:39;;;;;;;;;;;;;;;;;;6327534;22;19907;-83
2023/02/02 23:30:06;;;;;;;;;;;;;;;;;;6275046;22;19918;-82
2023/02/02 23:32:31;;;;;;;;;;;;;;;;;;6326611;22;19917;-82
2023/02/02 23:34:57;;;;;;;;;;;;;;;;;;6325834;22;19890;-84
2023/02/02 23:37:26;;;;;;;;;;;;;;;;;;6326976;22;19907;-82
2023/02/02 23:39:51;;;;;;;;;;;;;;;;;;6316679;22;19907;-82
2023/02/02 23:42:17;;;;;;;;;;;;;;;;;;6308530;22;19910;-81
2023/02/02 23:52:52;;;;;;;;;;;;;;;;;;6328386;22;19938;-82
2023/02/02 23:55:18;;;;;;;;;;;;;;;;;;6334690;22;19903;-82
2023/02/02 23:57:43;;;;;;;;;;;;;;;;;;6331773;22;19895;-83
